North Fairfield, Ohio
Current Conditions -  °F | °C
As of 8:52 PM on Saturday 25 Oct 2014 (Local Time) from KMFD Reporting Station
Clear Clear  
Wind Chill: 59°   Ceiling: Unl
Heat Index: 59°   Visibility: 10mi
Dew Point: 39°   Wind: 10mph
Humidity: 48%   Direction: 280°W
Pressure: 29.83"   Gusts: 21mph
Location:  41.1°N, 82.61°W
Report Text: KMFD 260052Z 28009G18KT 10SM CLR 15/04 A2983 RMK AO2 SLP101 T01500039
Loading
Personal Weather Stations






























Interactive Weather Map
Tropical Storm Tracking
New forecast layout! Learn more

10-Day Weather Forecast

Advertisements
Track Severe Weather on mobile